Aérodrome :
LOGIN :

S'inscrire | Disclaimer

   EN    FR    IT 

 










Légende :    VFR   VFR Marginal   IFR   IFR Intensif   IFR Très Intensif
Visi : 
Plafond : 
>= 8 km
>= 3000ft
5 à 8 km
1000 à 3000 ft
1500m à 5 km
500 à 1000 ft
800 à 1500m
200 à 500 ft
< 800m
< 200 ft
Symboles :   Orages  Brouillard  Fortes neiges  Fortes précipitations  Vent > 20 kt
SIGMETs :   Divers  Orages  Givrage  Turbulence  Onde Orograph.  Cendres Volcan.






- Altitude de l'aérodrome : 226 ft
- Code IATA : BEX


EGUB - RAF Benson

DERNIER METAR :
  • 042050Z 03007KT 9999 FEW029 BKN041 04/02 Q1027 NOSIG RMK BLU BLU

METARs EXPIRÉS :
  • 042030Z 04010KT 9999 -RA FEW024 OVC041 04/02 Q1027 TEMPO SCT024 RMK BLU TEMPO WHT
  • 042020Z 02010KT 9999 -RA FEW009 BKN024 OVC030 04/03 Q1026 BECMG FEW024 SCT030 RMK WHT BECMG BLU
  • 041950Z 33003KT 9999 -RA SCT019 BKN039 04/02 Q1026 TEMPO FEW019 RMK WHT TEMPO BLU
  • 041920Z 34002KT 9999 OVC039 04/02 Q1026 NOSIG RMK BLU BLU
  • 041850Z 36002KT 9999 BKN039 04/01 Q1026 TEMPO SCT017 RMK BLU TEMPO WHT

TAF TAF EGUB
Valide du 04 à 21h jusqu'au 05 à 00h UTC


041934Z 0421/0424 03007KT 9999 SCT025
TEMPO 0421/0423 BKN023
ATIS : +44 1491-837766 (x7524)



MET'MAP, la Météo Aéronautique d'un coup d'oeil ! - Copyright ORBIFLY Décembre 2007 - Disclaimer

ORBIFLY MET'MAP TEAM :

Programmation & Développement : Alexandra Zaïnal
Sur une idée originale de : Baudouin d'Aumeries
Assistance à la programmation : Marc-Olivier Méhu
Soutien technique & logistique : Manuel Goepfert

Contact : metmap@orbifly.com




SOURCES & CREDITS :

   NOAA